Terminal Aerodrome Forecast
Issued by NWS

Home | Current Version | Previous Version | Text Only | Print | Product List | Glossary On
Versions: 1 2 3 4 5 6 7 8 9 10 11 12 13 14 15 16 17 18 19 20 21
000
FTUS41 KILN 201600 AAB
TAFLUK
TAF AMD
KLUK 201607Z 2016/2112 24011G21KT P6SM FEW022 SCT035 BKN250
     FM202300 22010KT P6SM FEW050
     FM210800 22012KT P6SM VCSH BKN040
     FM211000 23010KT P6SM VCSH BKN025=

USA.gov is the U.S. government's official web portal to all federal, state and local government web resources and services.